createdAt,value
2016-06-23T00:00:51.413Z,0
2016-06-23T00:01:50.853Z,0
2016-06-23T00:02:50.843Z,0
2016-06-23T00:03:51.502Z,0
2016-06-23T00:04:51.522Z,0
2016-06-23T00:05:50.922Z,0
2016-06-23T00:06:50.959Z,0
2016-06-23T00:07:51.001Z,0
2016-06-23T00:08:51.010Z,0
2016-06-23T00:09:51.046Z,0
2016-06-23T00:10:51.090Z,0
2016-06-23T00:11:50.487Z,0
2016-06-23T00:12:51.140Z,0
2016-06-23T00:13:50.552Z,0
2016-06-23T00:14:51.811Z,0
2016-06-23T00:15:51.226Z,0
2016-06-23T00:16:51.238Z,0
2016-06-23T00:17:50.661Z,0
2016-06-23T00:18:51.323Z,0
2016-06-23T00:19:51.343Z,0
2016-06-23T00:20:50.754Z,0
2016-06-23T00:21:50.786Z,0
2016-06-23T00:22:51.423Z,0
2016-06-23T00:23:51.487Z,0
2016-06-23T00:24:50.861Z,0
2016-06-23T00:25:50.901Z,0
2016-06-23T00:26:51.557Z,0
2016-06-23T00:27:52.257Z,0
2016-06-23T00:28:51.619Z,0
2016-06-23T00:29:51.026Z,0
2016-06-23T00:30:51.675Z,0
2016-06-23T00:31:51.086Z,0
2016-06-23T00:32:52.457Z,0
2016-06-23T00:33:51.770Z,0
2016-06-23T00:34:51.181Z,0
2016-06-23T00:35:52.473Z,0
2016-06-23T00:36:51.846Z,0
2016-06-23T00:37:51.884Z,0
2016-06-23T00:38:51.298Z,0
2016-06-23T00:39:52.555Z,0
2016-06-23T00:40:52.595Z,0
2016-06-23T00:41:52.663Z,0
2016-06-23T00:42:52.030Z,0
2016-06-23T00:43:51.443Z,0
2016-06-23T00:44:51.476Z,0
2016-06-23T00:45:52.251Z,0
2016-06-23T00:46:52.250Z,0
2016-06-23T00:47:52.831Z,0
2016-06-23T00:48:52.301Z,0
2016-06-23T00:49:53.078Z,0
2016-06-23T00:50:52.319Z,0
2016-06-23T00:51:52.319Z,0
2016-06-23T00:52:52.955Z,0
2016-06-23T00:53:52.394Z,0
2016-06-23T00:54:52.402Z,0
2016-06-23T00:55:51.799Z,0
2016-06-23T00:56:51.813Z,0
2016-06-23T00:57:51.213Z,0
2016-06-23T00:58:52.570Z,0
2016-06-23T00:59:52.578Z,0
2016-06-23T01:00:51.940Z,0
2016-06-23T01:01:51.979Z,0
2016-06-23T01:02:51.383Z,0
2016-06-23T01:03:52.641Z,0
2016-06-23T01:04:52.674Z,0
2016-06-23T01:05:52.711Z,0
2016-06-23T01:06:52.718Z,0
2016-06-23T01:07:52.532Z,0
2016-06-23T01:08:53.761Z,0
2016-06-23T01:09:53.131Z,0
2016-06-23T01:10:53.219Z,0
2016-06-23T01:11:52.610Z,0
2016-06-23T01:12:53.106Z,0
2016-06-23T01:13:53.209Z,0
2016-06-23T01:14:52.432Z,0
2016-06-23T01:15:53.592Z,0
2016-06-23T01:16:53.015Z,0
2016-06-23T01:17:53.048Z,0
2016-06-23T01:18:53.071Z,0
2016-06-23T01:19:53.093Z,0
2016-06-23T01:20:53.122Z,0
2016-06-23T01:21:53.144Z,0
2016-06-23T01:22:53.185Z,0
2016-06-23T01:23:53.842Z,0
2016-06-23T01:24:53.893Z,0
2016-06-23T01:25:52.644Z,0
2016-06-23T01:26:52.723Z,0
2016-06-23T01:27:52.720Z,0
2016-06-23T01:28:52.727Z,0
2016-06-23T01:29:52.246Z,0
2016-06-23T01:30:52.807Z,0
2016-06-23T01:31:52.820Z,0
2016-06-23T01:32:53.477Z,0
2016-06-23T01:33:52.868Z,0
2016-06-23T01:34:54.147Z,0
2016-06-23T01:35:52.941Z,0
2016-06-23T01:36:53.574Z,0
2016-06-23T01:37:53.632Z,0
2016-06-23T01:38:52.394Z,0
2016-06-23T01:39:53.674Z,0
2016-06-23T01:40:53.071Z,0
2016-06-23T01:41:53.718Z,0
2016-06-23T01:42:53.763Z,0
2016-06-23T01:43:54.425Z,0
2016-06-23T01:44:53.808Z,0
2016-06-23T01:45:53.840Z,0
2016-06-23T01:46:53.869Z,0
2016-06-23T01:47:53.886Z,0
2016-06-23T01:48:53.912Z,0
2016-06-23T01:49:53.936Z,0
2016-06-23T01:50:54.007Z,0
2016-06-23T01:51:53.379Z,0
2016-06-23T01:52:54.029Z,0
2016-06-23T01:53:54.093Z,0
2016-06-23T01:54:54.079Z,0
2016-06-23T01:55:54.733Z,0
2016-06-23T01:56:54.225Z,0
2016-06-23T01:57:53.557Z,0
2016-06-23T01:58:55.025Z,0
2016-06-23T01:59:52.981Z,0
2016-06-23T02:00:54.417Z,0
2016-06-23T02:01:53.673Z,0
2016-06-23T02:02:53.714Z,0
2016-06-23T02:03:53.730Z,0
2016-06-23T02:04:53.762Z,0
2016-06-23T02:05:55.206Z,0
2016-06-23T02:06:54.478Z,0
2016-06-23T02:07:53.237Z,0
2016-06-23T02:08:54.538Z,0
2016-06-23T02:09:53.887Z,0
2016-06-23T02:10:54.549Z,0
2016-06-23T02:11:54.576Z,0
2016-06-23T02:12:53.979Z,0
2016-06-23T02:13:54.032Z,0
2016-06-23T02:14:55.370Z,0
2016-06-23T02:15:54.684Z,0
2016-06-23T02:16:53.510Z,0
2016-06-23T02:17:54.747Z,0
2016-06-23T02:18:54.774Z,0
2016-06-23T02:19:54.796Z,0
2016-06-23T02:20:55.503Z,0
2016-06-23T02:21:54.209Z,0
2016-06-23T02:22:54.879Z,0
2016-06-23T02:23:54.908Z,0
2016-06-23T02:24:55.556Z,0
2016-06-23T02:25:54.966Z,0
2016-06-23T02:26:55.012Z,4
2016-06-23T02:27:54.392Z,4
2016-06-23T02:28:54.435Z,4
2016-06-23T02:29:55.694Z,0
2016-06-23T02:30:55.181Z,0
2016-06-23T02:31:55.212Z,4
2016-06-23T02:32:54.539Z,4
2016-06-23T02:33:55.217Z,4
2016-06-23T02:34:55.361Z,0
2016-06-23T02:35:54.620Z,4
2016-06-23T02:36:55.377Z,4
2016-06-23T02:37:54.671Z,8
2016-06-23T02:38:56.008Z,4
2016-06-23T02:39:55.417Z,8
2016-06-23T02:40:55.544Z,8
2016-06-23T02:41:56.178Z,8
2016-06-23T02:42:55.445Z,8
2016-06-23T02:43:55.554Z,12
2016-06-23T02:44:54.863Z,8
2016-06-23T02:45:55.525Z,12
2016-06-23T02:46:54.946Z,12
2016-06-23T02:47:55.582Z,16
2016-06-23T02:48:56.216Z,12
2016-06-23T02:49:55.653Z,16
2016-06-23T02:50:55.041Z,16
2016-06-23T02:51:55.678Z,20
2016-06-23T02:52:55.094Z,20
2016-06-23T02:53:55.224Z,24
2016-06-23T02:54:55.193Z,24
2016-06-23T02:55:55.373Z,24
2016-06-23T02:56:55.252Z,28
2016-06-23T02:57:56.446Z,28
2016-06-23T02:58:55.877Z,28
2016-06-23T02:59:56.502Z,32
2016-06-23T03:00:56.526Z,32
2016-06-23T03:01:54.748Z,32
2016-06-23T03:02:55.500Z,40
2016-06-23T03:03:55.388Z,40
2016-06-23T03:04:54.803Z,40
2016-06-23T03:05:56.138Z,44
2016-06-23T03:06:56.136Z,48
2016-06-23T03:07:56.145Z,48
2016-06-23T03:08:56.232Z,52
2016-06-23T03:09:56.182Z,52
2016-06-23T03:10:54.957Z,56
2016-06-23T03:11:54.981Z,60
2016-06-23T03:12:55.666Z,60
2016-06-23T03:13:56.286Z,64
2016-06-23T03:14:56.921Z,68
2016-06-23T03:15:56.341Z,68
2016-06-23T03:16:56.367Z,68
2016-06-23T03:17:57.010Z,76
2016-06-23T03:18:57.041Z,76
2016-06-23T03:19:56.439Z,76
2016-06-23T03:20:55.851Z,80
2016-06-23T03:21:57.118Z,84
2016-06-23T03:22:56.049Z,84
2016-06-23T03:23:56.552Z,88
2016-06-23T03:24:57.205Z,92
2016-06-23T03:25:56.604Z,92
2016-06-23T03:26:56.627Z,96
2016-06-23T03:27:56.036Z,96
2016-06-23T03:28:56.693Z,100
2016-06-23T03:29:56.082Z,104
2016-06-23T03:30:56.128Z,104
2016-06-23T03:31:56.780Z,108
2016-06-23T03:32:56.175Z,108
2016-06-23T03:33:56.852Z,112
2016-06-23T03:34:56.222Z,112
2016-06-23T03:35:57.512Z,112
2016-06-23T03:36:56.282Z,116
2016-06-23T03:37:56.943Z,116
2016-06-23T03:38:56.323Z,120
2016-06-23T03:39:56.987Z,120
2016-06-23T03:40:57.011Z,124
2016-06-23T03:41:57.023Z,128
2016-06-23T03:42:57.054Z,128
2016-06-23T03:43:57.097Z,132
2016-06-23T03:44:57.103Z,132
2016-06-23T03:45:57.763Z,136
2016-06-23T03:46:57.813Z,136
2016-06-23T03:47:57.810Z,140
2016-06-23T03:48:56.610Z,140
2016-06-23T03:49:57.322Z,140
2016-06-23T03:50:57.330Z,144
2016-06-23T03:51:56.073Z,144
2016-06-23T03:52:56.718Z,148
2016-06-23T03:53:57.480Z,152
2016-06-23T03:54:57.420Z,148
2016-06-23T03:55:56.801Z,152
2016-06-23T03:56:57.438Z,156
2016-06-23T03:57:57.472Z,156
2016-06-23T03:58:57.504Z,156
2016-06-23T03:59:56.902Z,156
2016-06-23T04:00:57.560Z,160
2016-06-23T04:01:56.958Z,160
2016-06-23T04:02:58.234Z,160
2016-06-23T04:03:57.638Z,164
2016-06-23T04:04:58.289Z,164
2016-06-23T04:05:57.671Z,164
2016-06-23T04:06:57.104Z,168
2016-06-23T04:07:57.123Z,168
2016-06-23T04:08:56.530Z,172
2016-06-23T04:09:58.496Z,168
2016-06-23T04:10:58.504Z,172
2016-06-23T04:11:57.905Z,176
2016-06-23T04:12:58.552Z,172
2016-06-23T04:13:58.035Z,176
2016-06-23T04:14:58.040Z,176
2016-06-23T04:15:58.022Z,180
2016-06-23T04:16:56.747Z,176
2016-06-23T04:17:58.061Z,180
2016-06-23T04:18:56.803Z,184
2016-06-23T04:19:58.839Z,180
2016-06-23T04:20:58.218Z,184
2016-06-23T04:21:58.234Z,184
2016-06-23T04:22:58.239Z,184
2016-06-23T04:23:57.612Z,188
2016-06-23T04:24:58.256Z,188
2016-06-23T04:25:57.627Z,192
2016-06-23T04:26:57.621Z,188
2016-06-23T04:27:58.908Z,192
2016-06-23T04:28:57.062Z,192
2016-06-23T04:29:57.079Z,192
2016-06-23T04:30:58.399Z,192
2016-06-23T04:31:58.367Z,196
2016-06-23T04:32:58.507Z,196
2016-06-23T04:33:57.889Z,196
2016-06-23T04:34:58.467Z,196
2016-06-23T04:35:59.121Z,196
2016-06-23T04:36:57.466Z,200
2016-06-23T04:37:58.544Z,196
2016-06-23T04:38:58.727Z,200
2016-06-23T04:39:59.216Z,200
2016-06-23T04:40:58.632Z,204
2016-06-23T04:41:58.158Z,204
2016-06-23T04:42:58.793Z,200
2016-06-23T04:43:59.335Z,204
2016-06-23T04:44:59.362Z,204
2016-06-23T04:45:59.378Z,208
2016-06-23T04:46:58.883Z,208
2016-06-23T04:47:58.908Z,204
2016-06-23T04:48:59.447Z,208
2016-06-23T04:49:59.473Z,208
2016-06-23T04:50:58.884Z,208
2016-06-23T04:51:59.529Z,208
2016-06-23T04:52:58.940Z,212
2016-06-23T04:53:58.346Z,212
2016-06-23T04:54:58.982Z,212
2016-06-23T04:55:58.410Z,208
2016-06-23T04:56:58.439Z,212
2016-06-23T04:57:59.710Z,212
2016-06-23T04:58:57.861Z,212
2016-06-23T04:59:58.505Z,216
2016-06-23T05:00:59.145Z,216
2016-06-23T05:01:59.188Z,216
2016-06-23T05:02:59.866Z,216
2016-06-23T05:03:59.237Z,216
2016-06-23T05:04:59.265Z,216
2016-06-23T05:05:59.295Z,216
2016-06-23T05:06:59.306Z,216
2016-06-23T05:07:59.344Z,220
2016-06-23T05:08:59.346Z,220
2016-06-23T05:10:00.026Z,220
2016-06-23T05:10:58.781Z,220
2016-06-23T05:11:58.827Z,220
2016-06-23T05:12:58.855Z,220
2016-06-23T05:14:00.135Z,220
2016-06-23T05:14:59.529Z,224
2016-06-23T05:15:58.923Z,224
2016-06-23T05:16:59.584Z,220
2016-06-23T05:17:59.618Z,224
2016-06-23T05:18:59.630Z,224
2016-06-23T05:19:59.876Z,224
2016-06-23T05:21:00.300Z,224
2016-06-23T05:21:59.732Z,224
2016-06-23T05:23:00.370Z,228
2016-06-23T05:23:59.772Z,228
2016-06-23T05:24:59.176Z,224
2016-06-23T05:25:59.413Z,224
2016-06-23T05:26:59.229Z,228
2016-06-23T05:27:59.875Z,228
2016-06-23T05:28:59.315Z,232
2016-06-23T05:30:00.546Z,232
2016-06-23T05:30:59.386Z,232
2016-06-23T05:32:00.635Z,228
2016-06-23T05:33:00.001Z,228
2016-06-23T05:33:59.541Z,232
2016-06-23T05:34:58.822Z,232
2016-06-23T05:36:00.182Z,236
2016-06-23T05:36:59.494Z,236
2016-06-23T05:38:00.220Z,232
2016-06-23T05:38:59.594Z,232
2016-06-23T05:40:00.235Z,236
2016-06-23T05:41:00.234Z,236
2016-06-23T05:42:00.412Z,236
2016-06-23T05:43:00.276Z,240
2016-06-23T05:43:59.682Z,240
2016-06-23T05:45:00.319Z,236
2016-06-23T05:45:59.167Z,240
2016-06-23T05:47:00.392Z,240
2016-06-23T05:47:59.814Z,244
2016-06-23T05:48:59.204Z,240
2016-06-23T05:50:00.485Z,240
2016-06-23T05:50:59.887Z,240
2016-06-23T05:51:59.914Z,240
2016-06-23T05:52:59.925Z,240
2016-06-23T05:54:00.739Z,240
2016-06-23T05:54:59.358Z,240
2016-06-23T05:56:01.248Z,240
2016-06-23T05:57:00.106Z,244
2016-06-23T05:58:00.674Z,244
2016-06-23T05:59:00.709Z,244
2016-06-23T06:00:00.137Z,244
2016-06-23T06:01:00.751Z,244
2016-06-23T06:01:59.565Z,244
2016-06-23T06:03:00.812Z,244
2016-06-23T06:04:00.842Z,244
2016-06-23T06:05:00.241Z,244
2016-06-23T06:06:00.310Z,244
2016-06-23T06:07:00.386Z,248
2016-06-23T06:08:00.332Z,248
2016-06-23T06:09:01.599Z,248
2016-06-23T06:10:00.385Z,248
2016-06-23T06:11:00.407Z,248
2016-06-23T06:11:59.920Z,248
2016-06-23T06:13:00.462Z,248
2016-06-23T06:14:00.487Z,248
2016-06-23T06:15:01.150Z,248
2016-06-23T06:16:01.185Z,252
2016-06-23T06:17:01.187Z,248
2016-06-23T06:18:00.602Z,252
2016-06-23T06:19:01.247Z,252
2016-06-23T06:20:02.000Z,252
2016-06-23T06:21:00.070Z,252
2016-06-23T06:22:02.015Z,252
2016-06-23T06:23:00.748Z,252
2016-06-23T06:24:02.106Z,256
2016-06-23T06:25:01.403Z,256
2016-06-23T06:26:02.096Z,256
2016-06-23T06:27:00.860Z,256
2016-06-23T06:28:01.499Z,256
2016-06-23T06:29:02.155Z,260
2016-06-23T06:30:01.533Z,260
2016-06-23T06:31:01.572Z,260
2016-06-23T06:32:00.988Z,260
2016-06-23T06:33:01.004Z,260
2016-06-23T06:34:02.261Z,260
2016-06-23T06:35:01.678Z,264
2016-06-23T06:36:01.212Z,264
2016-06-23T06:37:01.198Z,264
2016-06-23T06:38:02.476Z,268
2016-06-23T06:39:01.333Z,264
2016-06-23T06:40:01.882Z,268
2016-06-23T06:41:00.687Z,268
2016-06-23T06:42:02.575Z,268
2016-06-23T06:43:00.705Z,268
2016-06-23T06:44:02.625Z,268
2016-06-23T06:45:01.402Z,272
2016-06-23T06:46:02.017Z,272
2016-06-23T06:47:01.990Z,272
2016-06-23T06:48:02.651Z,272
2016-06-23T06:49:01.445Z,272
2016-06-23T06:50:02.079Z,272
2016-06-23T06:51:02.146Z,276
2016-06-23T06:52:02.138Z,272
2016-06-23T06:53:02.165Z,276
2016-06-23T06:54:02.198Z,276
2016-06-23T06:55:02.229Z,276
2016-06-23T06:56:02.258Z,280
2016-06-23T06:57:01.047Z,276
2016-06-23T06:58:02.926Z,280
2016-06-23T06:59:02.330Z,276
2016-06-23T07:00:02.385Z,284
2016-06-23T07:01:01.774Z,280
2016-06-23T07:02:01.793Z,280
2016-06-23T07:03:02.445Z,284
2016-06-23T07:04:01.237Z,280
2016-06-23T07:05:02.508Z,284
2016-06-23T07:06:01.930Z,284
2016-06-23T07:07:01.918Z,288
2016-06-23T07:08:02.586Z,284
2016-06-23T07:09:03.225Z,288
2016-06-23T07:10:03.238Z,288
2016-06-23T07:11:02.675Z,288
2016-06-23T07:12:01.562Z,288
2016-06-23T07:13:02.756Z,288
2016-06-23T07:14:03.446Z,288
2016-06-23T07:15:02.822Z,292
2016-06-23T07:16:02.296Z,288
2016-06-23T07:17:02.896Z,288
2016-06-23T07:18:03.559Z,292
2016-06-23T07:19:03.589Z,292
2016-06-23T07:20:02.331Z,292
2016-06-23T07:21:03.595Z,296
2016-06-23T07:22:02.985Z,300
2016-06-23T07:23:01.754Z,300
2016-06-23T07:24:03.018Z,300
2016-06-23T07:25:03.064Z,304
2016-06-23T07:26:02.450Z,308
2016-06-23T07:27:02.493Z,308
2016-06-23T07:28:03.141Z,312
2016-06-23T07:29:01.973Z,316
2016-06-23T07:30:03.189Z,316
2016-06-23T07:31:02.613Z,320
2016-06-23T07:32:03.863Z,320
2016-06-23T07:33:03.889Z,324
2016-06-23T07:34:03.314Z,324
2016-06-23T07:35:02.091Z,328
2016-06-23T07:36:03.369Z,328
2016-06-23T07:37:03.399Z,336
2016-06-23T07:38:03.416Z,336
2016-06-23T07:39:04.074Z,340
2016-06-23T07:40:02.838Z,348
2016-06-23T07:41:03.514Z,352
2016-06-23T07:42:02.909Z,352
2016-06-23T07:43:03.565Z,352
2016-06-23T07:44:03.611Z,356
2016-06-23T07:45:03.672Z,364
2016-06-23T07:46:03.045Z,364
2016-06-23T07:47:03.694Z,368
2016-06-23T07:48:03.082Z,372
2016-06-23T07:49:03.126Z,376
2016-06-23T07:50:03.137Z,380
2016-06-23T07:51:03.801Z,384
2016-06-23T07:52:04.469Z,384
2016-06-23T07:53:04.452Z,388
2016-06-23T07:54:04.479Z,392
2016-06-23T07:55:03.904Z,400
2016-06-23T07:56:02.685Z,400
2016-06-23T07:57:03.958Z,404
2016-06-23T07:58:04.015Z,412
2016-06-23T07:59:04.048Z,416
2016-06-23T08:00:03.460Z,420
2016-06-23T08:01:04.068Z,420
2016-06-23T08:02:04.216Z,428
2016-06-23T08:03:02.898Z,432
2016-06-23T08:04:04.161Z,436
2016-06-23T08:05:04.175Z,440
2016-06-23T08:06:03.604Z,440
2016-06-23T08:07:04.272Z,448
2016-06-23T08:08:04.909Z,452
2016-06-23T08:09:04.916Z,456
2016-06-23T08:10:05.043Z,460
2016-06-23T08:11:05.080Z,468
2016-06-23T08:12:03.779Z,472
2016-06-23T08:13:03.795Z,476
2016-06-23T08:14:05.094Z,484
2016-06-23T08:15:03.861Z,488
2016-06-23T08:16:03.903Z,488
2016-06-23T08:17:04.556Z,496
2016-06-23T08:18:03.995Z,504
2016-06-23T08:19:04.700Z,508
2016-06-23T08:20:04.709Z,508
2016-06-23T08:21:04.028Z,516
2016-06-23T08:22:04.740Z,516
2016-06-23T08:23:04.759Z,524
2016-06-23T08:24:04.759Z,532
2016-06-23T08:25:05.389Z,540
2016-06-23T08:26:04.898Z,540
2016-06-23T08:27:04.205Z,548
2016-06-23T08:28:04.222Z,552
2016-06-23T08:29:04.959Z,556
2016-06-23T08:30:04.966Z,564
2016-06-23T08:31:04.328Z,568
2016-06-23T08:32:04.375Z,572
2016-06-23T08:33:05.021Z,584
2016-06-23T08:34:05.637Z,584
2016-06-23T08:35:05.070Z,592
2016-06-23T08:36:05.100Z,596
2016-06-23T08:37:05.131Z,604
2016-06-23T08:38:05.810Z,612
2016-06-23T08:39:04.552Z,612
2016-06-23T08:40:04.589Z,624
2016-06-23T08:41:04.623Z,628
2016-06-23T08:42:05.891Z,624
2016-06-23T08:43:05.391Z,636
2016-06-23T08:44:05.390Z,644
2016-06-23T08:45:05.552Z,648
2016-06-23T08:46:06.013Z,656
2016-06-23T08:47:04.998Z,664
2016-06-23T08:48:05.623Z,668
2016-06-23T08:49:06.125Z,672
2016-06-23T08:50:05.676Z,680
2016-06-23T08:51:05.061Z,680
2016-06-23T08:52:05.079Z,688
2016-06-23T08:53:05.702Z,692
2016-06-23T08:54:06.299Z,696
2016-06-23T08:55:06.287Z,708
2016-06-23T08:56:06.334Z,716
2016-06-23T08:57:05.219Z,724
2016-06-23T08:58:05.797Z,732
2016-06-23T08:59:05.847Z,732
2016-06-23T09:00:05.949Z,740
2016-06-23T09:01:05.939Z,748
2016-06-23T09:02:06.680Z,752
2016-06-23T09:03:05.934Z,764
2016-06-23T09:04:05.328Z,772
2016-06-23T09:05:05.366Z,772
2016-06-23T09:06:05.404Z,776
2016-06-23T09:07:06.083Z,780
2016-06-23T09:08:06.088Z,792
2016-06-23T09:09:06.842Z,796
2016-06-23T09:10:06.849Z,800
2016-06-23T09:11:06.846Z,808
2016-06-23T09:12:05.019Z,816
2016-06-23T09:13:04.999Z,824
2016-06-23T09:14:06.361Z,836
2016-06-23T09:15:05.747Z,836
2016-06-23T09:16:05.114Z,836
2016-06-23T09:17:06.547Z,848
2016-06-23T09:18:06.411Z,864
2016-06-23T09:19:07.065Z,864
2016-06-23T09:20:07.108Z,872
2016-06-23T09:21:06.568Z,880
2016-06-23T09:22:06.097Z,880
2016-06-23T09:23:05.342Z,884
2016-06-23T09:24:07.226Z,904
2016-06-23T09:25:06.719Z,904
2016-06-23T09:26:06.676Z,904
2016-06-23T09:27:07.323Z,920
2016-06-23T09:28:06.763Z,932
2016-06-23T09:29:06.204Z,940
2016-06-23T09:30:06.839Z,944
2016-06-23T09:31:06.829Z,952
2016-06-23T09:32:07.482Z,968
2016-06-23T09:33:06.911Z,968
2016-06-23T09:34:06.330Z,972
2016-06-23T09:35:06.966Z,984
2016-06-23T09:36:07.012Z,992
2016-06-23T09:37:07.022Z,996
2016-06-23T09:38:07.067Z,1012
2016-06-23T09:39:07.093Z,1020
2016-06-23T09:40:06.514Z,1036
2016-06-23T09:41:07.186Z,1032
2016-06-23T09:42:06.578Z,1036
2016-06-23T09:43:07.219Z,1044
2016-06-23T09:44:06.670Z,1048
2016-06-23T09:45:07.281Z,1064
2016-06-23T09:46:06.705Z,1076
2016-06-23T09:47:07.363Z,1080
2016-06-23T09:48:08.007Z,1088
2016-06-23T09:49:08.053Z,1100
2016-06-23T09:50:07.447Z,1104
2016-06-23T09:51:06.886Z,1108
2016-06-23T09:52:06.906Z,1120
2016-06-23T09:53:07.550Z,1128
2016-06-23T09:54:08.227Z,1136
2016-06-23T09:55:08.231Z,1156
2016-06-23T09:56:07.034Z,1172
2016-06-23T09:57:07.705Z,1176
2016-06-23T09:58:07.137Z,1176
2016-06-23T09:59:07.761Z,1188
2016-06-23T10:00:07.808Z,1196
2016-06-23T10:01:08.544Z,1200
2016-06-23T10:02:07.849Z,1204
2016-06-23T10:03:07.915Z,1208
2016-06-23T10:04:07.307Z,1224
2016-06-23T10:05:07.343Z,1244
2016-06-23T10:06:08.032Z,1252
2016-06-23T10:07:07.406Z,1260
2016-06-23T10:08:07.436Z,1268
2016-06-23T10:09:07.481Z,1272
2016-06-23T10:10:07.522Z,1288
2016-06-23T10:11:08.823Z,1300
2016-06-23T10:12:08.890Z,1308
2016-06-23T10:13:08.241Z,1312
2016-06-23T10:14:08.272Z,1324
2016-06-23T10:15:07.700Z,1344
2016-06-23T10:16:08.334Z,1356
2016-06-23T10:17:08.382Z,1360
2016-06-23T10:18:07.181Z,1360
2016-06-23T10:19:07.199Z,1376
2016-06-23T10:20:07.869Z,1388
2016-06-23T10:21:08.096Z,1392
2016-06-23T10:22:07.323Z,1400
2016-06-23T10:23:09.250Z,1416
2016-06-23T10:24:09.394Z,1432
2016-06-23T10:25:09.406Z,1448
2016-06-23T10:26:08.797Z,1444
2016-06-23T10:27:08.795Z,1456
2016-06-23T10:28:08.827Z,1456
2016-06-23T10:29:08.915Z,1456
2016-06-23T10:30:08.215Z,1488
2016-06-23T10:31:08.930Z,1512
2016-06-23T10:32:08.950Z,1520
2016-06-23T10:33:09.619Z,1520
2016-06-23T10:34:09.622Z,1528
2016-06-23T10:35:08.434Z,1548
2016-06-23T10:36:09.039Z,1560
2016-06-23T10:37:09.685Z,1564
2016-06-23T10:38:08.639Z,1568
2016-06-23T10:39:08.773Z,1580
2016-06-23T10:40:09.176Z,1600
2016-06-23T10:41:09.288Z,1604
2016-06-23T10:42:09.246Z,1616
2016-06-23T10:43:08.180Z,1636
2016-06-23T10:44:09.943Z,1652
2016-06-23T10:45:09.352Z,1664
2016-06-23T10:46:09.378Z,1676
2016-06-23T10:47:08.833Z,1676
2016-06-23T10:48:08.214Z,1692
2016-06-23T10:49:09.487Z,1708
2016-06-23T10:50:08.925Z,1736
2016-06-23T10:51:09.550Z,1744
2016-06-23T10:52:09.632Z,1752
2016-06-23T10:53:09.629Z,1772
2016-06-23T10:54:09.691Z,1776
2016-06-23T10:55:09.079Z,1796
2016-06-23T10:56:09.740Z,1820
2016-06-23T10:57:09.782Z,1836
2016-06-23T10:58:08.574Z,1852
2016-06-23T10:59:09.237Z,1860
2016-06-23T11:00:10.511Z,1876
2016-06-23T11:01:09.281Z,1880
2016-06-23T11:02:10.563Z,1880
2016-06-23T11:03:10.634Z,1880
2016-06-23T11:04:10.040Z,1920
2016-06-23T11:05:09.455Z,1964
2016-06-23T11:06:09.490Z,2008
2016-06-23T11:07:10.127Z,2024
2016-06-23T11:08:10.159Z,2024
2016-06-23T11:09:10.217Z,2024
2016-06-23T11:10:08.993Z,2032
2016-06-23T11:11:10.937Z,2048
2016-06-23T11:12:10.942Z,2064
2016-06-23T11:13:10.358Z,2072
2016-06-23T11:14:10.382Z,2076
2016-06-23T11:15:11.038Z,2092
2016-06-23T11:16:09.835Z,2104
2016-06-23T11:17:10.507Z,2124
2016-06-23T11:18:11.246Z,2144
2016-06-23T11:19:09.341Z,2168
2016-06-23T11:20:10.665Z,2184
2016-06-23T11:21:10.705Z,2200
2016-06-23T11:22:10.060Z,2208
2016-06-23T11:23:10.821Z,2240
2016-06-23T11:24:10.122Z,2256
2016-06-23T11:25:10.881Z,2280
2016-06-23T11:26:10.194Z,2296
2016-06-23T11:27:10.250Z,2320
2016-06-23T11:28:11.541Z,2336
2016-06-23T11:29:10.942Z,2344
2016-06-23T11:30:10.982Z,2364
2016-06-23T11:31:11.046Z,2392
2016-06-23T11:32:10.420Z,2408
2016-06-23T11:33:11.075Z,2436
2016-06-23T11:34:11.826Z,2460
2016-06-23T11:35:11.839Z,2504
2016-06-23T11:36:12.048Z,2536
2016-06-23T11:37:11.438Z,2540
2016-06-23T11:38:10.202Z,2556
2016-06-23T11:39:10.867Z,2572
2016-06-23T11:40:11.489Z,2588
2016-06-23T11:41:10.262Z,2600
2016-06-23T11:42:10.879Z,2624
2016-06-23T11:43:12.134Z,2648
2016-06-23T11:44:12.203Z,2672
2016-06-23T11:45:10.987Z,2700
2016-06-23T11:46:10.386Z,2732
2016-06-23T11:47:11.661Z,2744
2016-06-23T11:48:11.650Z,2768
2016-06-23T11:49:12.303Z,2784
2016-06-23T11:50:12.355Z,2800
2016-06-23T11:51:12.368Z,2836
2016-06-23T11:52:11.172Z,2864
2016-06-23T11:53:12.467Z,2880
2016-06-23T11:54:12.495Z,2896
2016-06-23T11:55:11.290Z,2916
2016-06-23T11:56:12.577Z,2936
2016-06-23T11:57:11.369Z,2952
2016-06-23T11:58:12.041Z,2956
2016-06-23T11:59:11.457Z,2972
2016-06-23T12:00:12.098Z,3008
2016-06-23T12:01:11.607Z,3044
2016-06-23T12:02:12.166Z,3044
2016-06-23T12:03:12.830Z,3072
2016-06-23T12:04:12.278Z,3128
2016-06-23T12:05:12.913Z,3168
2016-06-23T12:06:12.945Z,3164
2016-06-23T12:07:11.745Z,3164
2016-06-23T12:08:13.028Z,3172
2016-06-23T12:09:13.086Z,3188
2016-06-23T12:10:12.493Z,3244
2016-06-23T12:11:12.520Z,3288
2016-06-23T12:12:11.322Z,3316
2016-06-23T12:13:12.643Z,3312
2016-06-23T12:14:12.037Z,3364
2016-06-23T12:15:13.287Z,3372
2016-06-23T12:16:12.708Z,3384
2016-06-23T12:17:11.501Z,3392
2016-06-23T12:18:13.501Z,3432
2016-06-23T12:19:11.581Z,3468
2016-06-23T12:20:11.614Z,3484
2016-06-23T12:21:12.315Z,3488
2016-06-23T12:22:12.351Z,3496
2016-06-23T12:23:12.362Z,3512
2016-06-23T12:24:13.050Z,3520
2016-06-23T12:25:13.067Z,3552
2016-06-23T12:26:13.110Z,3564
2016-06-23T12:27:12.510Z,3592
2016-06-23T12:28:12.546Z,3616
2016-06-23T12:29:13.842Z,3636
2016-06-23T12:30:13.257Z,3660
2016-06-23T12:31:12.665Z,3664
2016-06-23T12:32:13.456Z,3680
2016-06-23T12:33:12.747Z,3700
2016-06-23T12:34:13.505Z,3724
2016-06-23T12:35:12.819Z,3740
2016-06-23T12:36:14.105Z,3752
2016-06-23T12:37:14.162Z,3788
2016-06-23T12:38:14.219Z,3816
2016-06-23T12:39:12.365Z,3804
2016-06-23T12:40:13.739Z,3840
2016-06-23T12:41:13.751Z,3856
2016-06-23T12:42:12.472Z,3880
2016-06-23T12:43:14.394Z,3876
2016-06-23T12:44:13.809Z,3876
2016-06-23T12:45:14.470Z,3892
2016-06-23T12:46:14.503Z,3908
2016-06-23T12:47:13.952Z,3928
2016-06-23T12:48:13.471Z,3940
2016-06-23T12:49:12.761Z,3956
2016-06-23T12:50:13.510Z,3992
2016-06-23T12:51:13.545Z,4012
2016-06-23T12:52:13.585Z,4032
2016-06-23T12:53:14.773Z,4032
2016-06-23T12:54:14.798Z,4048
2016-06-23T12:55:14.223Z,4084
2016-06-23T12:56:14.265Z,4116
2016-06-23T12:57:14.334Z,4156
2016-06-23T12:58:14.986Z,4172
2016-06-23T12:59:14.388Z,4196
2016-06-23T13:00:15.076Z,4220
2016-06-23T13:01:13.840Z,4244
2016-06-23T13:02:14.499Z,4264
2016-06-23T13:03:15.172Z,4292
2016-06-23T13:04:14.610Z,4332
2016-06-23T13:05:14.117Z,4388
2016-06-23T13:06:15.286Z,4452
2016-06-23T13:07:14.702Z,4488
2016-06-23T13:08:15.360Z,4548
2016-06-23T13:09:14.157Z,4604
2016-06-23T13:10:15.537Z,4636
2016-06-23T13:11:14.247Z,4688
2016-06-23T13:12:14.892Z,4724
2016-06-23T13:13:14.313Z,4772
2016-06-23T13:14:14.991Z,4816
2016-06-23T13:15:14.453Z,4884
2016-06-23T13:16:13.814Z,4904
2016-06-23T13:17:15.092Z,4928
2016-06-23T13:18:15.794Z,4972
2016-06-23T13:19:15.191Z,5032
2016-06-23T13:20:15.820Z,5052
2016-06-23T13:21:15.875Z,5068
2016-06-23T13:22:15.918Z,5108
2016-06-23T13:23:15.335Z,5136
2016-06-23T13:24:15.453Z,5164
2016-06-23T13:25:15.510Z,5204
2016-06-23T13:26:14.829Z,5232
2016-06-23T13:27:14.883Z,5248
2016-06-23T13:28:15.557Z,5280
2016-06-23T13:29:15.699Z,5296
2016-06-23T13:30:15.011Z,5368
2016-06-23T13:31:16.375Z,5400
2016-06-23T13:32:15.068Z,5444
2016-06-23T13:33:16.389Z,5464
2016-06-23T13:34:15.167Z,5500
2016-06-23T13:35:15.820Z,5544
2016-06-23T13:36:15.881Z,5596
2016-06-23T13:37:15.890Z,5628
2016-06-23T13:38:16.568Z,5656
2016-06-23T13:39:15.985Z,5696
2016-06-23T13:40:15.461Z,5736
2016-06-23T13:41:15.491Z,5788
2016-06-23T13:42:15.592Z,5804
2016-06-23T13:43:16.766Z,5844
2016-06-23T13:44:16.795Z,5908
2016-06-23T13:45:14.978Z,5940
2016-06-23T13:46:16.438Z,5952
2016-06-23T13:47:15.754Z,5984
2016-06-23T13:48:16.993Z,6016
2016-06-23T13:49:17.009Z,6052
2016-06-23T13:50:15.892Z,6068
2016-06-23T13:51:16.514Z,6108